createdAt,value
2023-03-29T00:01:42.087Z,101716.19
2023-03-29T00:04:10.216Z,101717.09
2023-03-29T00:06:59.461Z,101710.19
2023-03-29T00:09:26.704Z,101715.38
2023-03-29T00:11:53.477Z,101705.81
2023-03-29T00:14:19.998Z,101708.41
2023-03-29T00:16:46.872Z,101706.63
2023-03-29T00:19:13.556Z,101701.44
2023-03-29T00:21:40.024Z,101704.91
2023-03-29T00:24:06.566Z,101704.13
2023-03-29T00:26:32.969Z,101696.34
2023-03-29T00:28:59.631Z,101689.41
2023-03-29T00:31:27.330Z,101682.53
2023-03-29T00:33:53.902Z,101674.75
2023-03-29T00:36:22.080Z,101666.19
2023-03-29T00:38:48.651Z,101663.59
2023-03-29T00:41:15.269Z,101661.78
2023-03-29T00:43:56.246Z,101660.09
2023-03-29T00:46:23.645Z,101655.75
2023-03-29T00:48:53.040Z,101656.59
2023-03-29T00:51:22.867Z,101641.94
2023-03-29T00:53:53.546Z,101647.91
2023-03-29T00:56:37.097Z,101645.31
2023-03-29T00:59:15.628Z,101642.63
2023-03-29T01:02:03.398Z,101634.84
2023-03-29T01:04:41.711Z,101641.72
2023-03-29T01:07:30.737Z,101637.34
2023-03-29T01:10:23.526Z,101626.91
2023-03-29T01:13:03.667Z,101619.94
2023-03-29T01:15:30.747Z,101606.88
2023-03-29T01:17:58.358Z,101616.31
2023-03-29T01:20:43.492Z,101617.94
2023-03-29T01:23:34.824Z,101615.34
2023-03-29T01:26:19.906Z,101599.66
2023-03-29T01:28:56.525Z,101603.91
2023-03-29T01:31:28.366Z,101596.94
2023-03-29T01:34:08.738Z,101601.97
2023-03-29T01:36:58.769Z,101605.31
2023-03-29T01:39:25.209Z,101608.72
2023-03-29T01:41:57.662Z,101602.63
2023-03-29T01:45:03.447Z,101594.75
2023-03-29T01:48:03.507Z,101584.28
2023-03-29T01:50:43.190Z,101590.22
2023-03-29T01:53:38.505Z,101592.72
2023-03-29T01:56:18.539Z,101585.69
2023-03-29T01:58:52.874Z,101586.53
2023-03-29T02:01:25.850Z,101580.50
2023-03-29T02:03:57.573Z,101580.50
2023-03-29T02:06:27.675Z,101574.44
2023-03-29T02:08:55.765Z,101572.72
2023-03-29T02:11:24.786Z,101565.78
2023-03-29T02:13:51.476Z,101568.44
2023-03-29T02:16:19.086Z,101568.44
2023-03-29T02:18:48.737Z,101561.53
2023-03-29T02:21:34.000Z,101565.84
2023-03-29T02:24:06.334Z,101564.91
2023-03-29T02:26:33.109Z,101561.53
2023-03-29T02:28:59.696Z,101552.00
2023-03-29T02:31:40.895Z,101554.53
2023-03-29T02:34:19.880Z,101550.25
2023-03-29T02:36:48.164Z,101542.47
2023-03-29T02:39:16.936Z,101542.47
2023-03-29T02:41:47.091Z,101545.00
2023-03-29T02:44:18.663Z,101545.00
2023-03-29T02:46:48.782Z,101543.28
2023-03-29T02:49:15.427Z,101535.47
2023-03-29T02:51:42.492Z,101538.00
2023-03-29T02:54:22.617Z,101533.72
2023-03-29T02:56:55.983Z,101538.06
2023-03-29T02:59:22.607Z,101532.88
2023-03-29T03:01:49.607Z,101528.56
2023-03-29T03:04:18.507Z,101528.56
2023-03-29T03:06:44.969Z,101525.09
2023-03-29T03:09:11.710Z,101533.75
2023-03-29T03:11:38.180Z,101525.13
2023-03-29T03:14:05.750Z,101517.34
2023-03-29T03:16:32.391Z,101517.31
2023-03-29T03:18:59.064Z,101504.31
2023-03-29T03:21:28.070Z,101500.81
2023-03-29T03:23:55.639Z,101505.16
2023-03-29T03:26:23.250Z,101498.22
2023-03-29T03:28:49.821Z,101499.06
2023-03-29T03:31:17.428Z,101499.97
2023-03-29T03:33:44.697Z,101499.97
2023-03-29T03:36:11.584Z,101493.97
2023-03-29T03:38:38.923Z,101493.06
2023-03-29T03:41:07.255Z,101489.59
2023-03-29T03:43:34.529Z,101494.81
2023-03-29T03:46:01.921Z,101491.38
2023-03-29T03:48:28.536Z,101497.41
2023-03-29T03:50:57.060Z,101499.13
2023-03-29T03:53:25.306Z,101495.63
2023-03-29T03:55:53.280Z,101505.09
2023-03-29T03:58:19.955Z,101498.22
2023-03-29T04:00:50.535Z,101501.59
2023-03-29T04:03:18.105Z,101502.50
2023-03-29T04:05:46.305Z,101503.34
2023-03-29T04:08:13.849Z,101499.00
2023-03-29T04:10:40.770Z,101498.16
2023-03-29T04:13:07.644Z,101499.91
2023-03-29T04:15:38.546Z,101487.75
2023-03-29T04:18:07.201Z,101486.91
2023-03-29T04:20:34.472Z,101493.78
2023-03-29T04:23:01.030Z,101486.00
2023-03-29T04:25:27.516Z,101484.28
2023-03-29T04:27:54.038Z,101474.75
2023-03-29T04:30:20.582Z,101479.88
2023-03-29T04:32:47.273Z,101483.31
2023-03-29T04:35:13.725Z,101479.00
2023-03-29T04:37:40.342Z,101476.31
2023-03-29T04:40:14.149Z,101479.84
2023-03-29T04:42:45.826Z,101466.03
2023-03-29T04:45:19.698Z,101459.06
2023-03-29T04:47:46.339Z,101464.25
2023-03-29T04:50:13.874Z,101475.50
2023-03-29T04:52:40.790Z,101461.66
2023-03-29T04:55:07.897Z,101464.19
2023-03-29T04:57:34.530Z,101465.09
2023-03-29T05:00:01.761Z,101470.22
2023-03-29T05:02:30.906Z,101464.19
2023-03-29T05:04:57.546Z,101465.00
2023-03-29T05:07:24.576Z,101463.25
2023-03-29T05:09:51.251Z,101466.69
2023-03-29T05:12:17.731Z,101468.34
2023-03-29T05:14:44.251Z,101457.94
2023-03-29T05:17:10.741Z,101460.53
2023-03-29T05:19:38.261Z,101450.94
2023-03-29T05:22:04.991Z,101456.94
2023-03-29T05:24:31.692Z,101460.34
2023-03-29T05:26:58.219Z,101455.16
2023-03-29T05:29:24.710Z,101457.69
2023-03-29T05:31:52.443Z,101452.44
2023-03-29T05:34:19.957Z,101459.34
2023-03-29T05:36:46.497Z,101459.28
2023-03-29T05:39:12.975Z,101464.44
2023-03-29T05:41:40.338Z,101467.03
2023-03-29T05:44:07.260Z,101466.13
2023-03-29T05:46:33.881Z,101466.97
2023-03-29T05:49:01.361Z,101469.50
2023-03-29T05:51:27.961Z,101464.25
2023-03-29T05:53:54.458Z,101465.03
2023-03-29T05:56:22.442Z,101471.94
2023-03-29T05:58:49.508Z,101474.41
2023-03-29T06:01:17.895Z,101459.63
2023-03-29T06:03:46.152Z,101468.22
2023-03-29T06:06:16.463Z,101471.63
2023-03-29T06:08:44.303Z,101470.66
2023-03-29T06:11:13.329Z,101475.75
2023-03-29T06:13:42.053Z,101472.22
2023-03-29T06:16:13.306Z,101473.78
2023-03-29T06:18:41.018Z,101466.81
2023-03-29T06:21:09.265Z,101464.06
2023-03-29T06:23:36.673Z,101469.16
2023-03-29T06:26:03.931Z,101474.22
2023-03-29T06:28:30.720Z,101471.50
2023-03-29T06:33:30.594Z,101472.13
2023-03-29T06:35:57.552Z,101467.59
2023-03-29T06:38:26.727Z,101474.22
2023-03-29T06:41:00.814Z,101466.06
2023-03-29T06:43:27.546Z,101473.72
2023-03-29T06:45:54.862Z,101472.69
2023-03-29T06:48:21.598Z,101474.25
2023-03-29T06:50:48.715Z,101475.00
2023-03-29T06:53:18.011Z,101471.31
2023-03-29T06:55:44.594Z,101475.47
2023-03-29T06:58:11.221Z,101465.66
2023-03-29T07:00:39.243Z,101464.63
2023-03-29T07:03:09.795Z,101474.09
2023-03-29T07:05:40.673Z,101475.69
2023-03-29T07:08:07.780Z,101478.25
2023-03-29T07:10:41.142Z,101478.06
2023-03-29T07:13:13.178Z,101485.34
2023-03-29T07:15:41.650Z,101475.16
2023-03-29T07:18:09.613Z,101476.56
2023-03-29T07:20:38.321Z,101477.41
2023-03-29T07:23:05.753Z,101477.91
2023-03-29T07:25:33.946Z,101481.97
2023-03-29T07:28:00.464Z,101477.69
2023-03-29T07:30:31.643Z,101482.75
2023-03-29T07:32:59.527Z,101480.22
2023-03-29T07:35:27.004Z,101487.31
2023-03-29T07:37:55.452Z,101481.19
2023-03-29T07:40:23.401Z,101482.88
2023-03-29T07:42:53.066Z,101486.16
2023-03-29T07:45:26.805Z,101480.53
2023-03-29T07:47:57.563Z,101488.06
2023-03-29T07:50:24.976Z,101494.00
2023-03-29T07:52:51.775Z,101493.66
2023-03-29T07:55:18.471Z,101494.88
2023-03-29T07:57:44.969Z,101489.41
2023-03-29T08:00:17.065Z,101485.00
2023-03-29T08:02:49.740Z,101484.03
2023-03-29T08:05:26.095Z,101478.31
2023-03-29T08:08:00.885Z,101487.00
2023-03-29T08:10:27.806Z,101488.53
2023-03-29T08:12:54.388Z,101496.97
2023-03-29T08:15:20.880Z,101480.56
2023-03-29T08:17:47.376Z,101485.84
2023-03-29T08:20:16.217Z,101488.25
2023-03-29T08:22:43.211Z,101493.06
2023-03-29T08:25:10.371Z,101484.03
2023-03-29T08:27:37.620Z,101478.63
2023-03-29T08:30:07.835Z,101485.31
2023-03-29T08:32:34.293Z,101476.31
2023-03-29T08:35:03.782Z,101474.41
2023-03-29T08:37:31.744Z,101474.03
2023-03-29T08:39:58.535Z,101464.38
2023-03-29T08:42:55.258Z,101461.41
2023-03-29T08:45:27.759Z,101461.66
2023-03-29T08:48:09.633Z,101461.53
2023-03-29T08:50:40.499Z,101457.00
2023-03-29T08:53:32.511Z,101461.44
2023-03-29T08:56:02.412Z,101471.19
2023-03-29T08:58:32.803Z,101473.66
2023-03-29T09:01:03.786Z,101482.34
2023-03-29T09:03:35.032Z,101488.53
2023-03-29T09:06:07.682Z,101486.72
2023-03-29T09:08:39.383Z,101488.66
2023-03-29T09:11:26.062Z,101493.59
2023-03-29T09:14:27.012Z,101485.81
2023-03-29T09:16:56.416Z,101481.63
2023-03-29T09:19:37.779Z,101484.13
2023-03-29T09:22:04.270Z,101489.13
2023-03-29T09:24:44.344Z,101477.69
2023-03-29T09:27:50.268Z,101487.56
2023-03-29T09:30:26.286Z,101490.28
2023-03-29T09:32:56.637Z,101478.59
2023-03-29T09:35:41.210Z,101478.28
2023-03-29T09:38:12.385Z,101477.44
2023-03-29T09:40:48.933Z,101483.38
2023-03-29T09:43:19.217Z,101491.25
2023-03-29T09:45:53.232Z,101481.03
2023-03-29T09:48:20.760Z,101480.78
2023-03-29T09:50:51.250Z,101485.09
2023-03-29T09:53:19.555Z,101465.53
2023-03-29T09:55:50.308Z,101482.00
2023-03-29T09:58:25.089Z,101475.22
2023-03-29T10:00:53.163Z,101471.34
2023-03-29T10:03:28.490Z,101475.78
2023-03-29T10:05:58.476Z,101477.25
2023-03-29T10:08:39.139Z,101484.94
2023-03-29T10:11:23.317Z,101482.00
2023-03-29T10:13:56.816Z,101479.31
2023-03-29T10:16:25.923Z,101482.44
2023-03-29T10:18:54.571Z,101461.94
2023-03-29T10:21:22.048Z,101464.97
2023-03-29T10:23:49.970Z,101462.28
2023-03-29T10:26:24.805Z,101460.56
2023-03-29T10:28:54.864Z,101460.41
2023-03-29T10:31:22.661Z,101455.81
2023-03-29T10:33:57.368Z,101463.97
2023-03-29T10:36:27.223Z,101458.38
2023-03-29T10:38:57.422Z,101455.88
2023-03-29T10:41:27.056Z,101449.44
2023-03-29T10:43:54.537Z,101446.81
2023-03-29T10:46:30.163Z,101449.91
2023-03-29T10:48:57.767Z,101445.03
2023-03-29T10:51:27.861Z,101450.56
2023-03-29T10:53:54.346Z,101449.13
2023-03-29T10:56:37.104Z,101440.38
2023-03-29T10:59:29.578Z,101438.41
2023-03-29T11:02:14.802Z,101430.25
2023-03-29T11:04:56.697Z,101419.50
2023-03-29T11:08:08.023Z,101420.78
2023-03-29T11:11:02.565Z,101430.28
2023-03-29T11:13:48.019Z,101435.53
2023-03-29T11:16:46.824Z,101425.59
2023-03-29T11:19:26.357Z,101421.09
2023-03-29T11:22:03.022Z,101419.66
2023-03-29T11:24:50.115Z,101412.28
2023-03-29T11:27:31.228Z,101411.63
2023-03-29T11:30:16.621Z,101410.38
2023-03-29T11:33:04.967Z,101415.69
2023-03-29T11:35:31.654Z,101413.22
2023-03-29T11:38:27.945Z,101417.34
2023-03-29T11:41:16.048Z,101420.22
2023-03-29T11:43:58.700Z,101418.75
2023-03-29T11:46:33.714Z,101414.50
2023-03-29T11:49:12.420Z,101419.53
2023-03-29T11:51:54.415Z,101413.34
2023-03-29T11:54:41.100Z,101417.94
2023-03-29T11:57:29.257Z,101418.31
2023-03-29T12:00:05.866Z,101424.88
2023-03-29T12:02:46.147Z,101430.50
2023-03-29T12:05:39.587Z,101436.25
2023-03-29T12:08:15.310Z,101424.03
2023-03-29T12:10:53.725Z,101423.38
2023-03-29T12:13:33.854Z,101417.69
2023-03-29T12:16:08.764Z,101417.66
2023-03-29T12:18:51.400Z,101411.75
2023-03-29T12:21:22.945Z,101401.94
2023-03-29T12:23:50.708Z,101401.94
2023-03-29T12:26:44.726Z,101406.63
2023-03-29T12:29:14.020Z,101404.84
2023-03-29T12:31:53.013Z,101408.88
2023-03-29T12:34:35.912Z,101414.91
2023-03-29T12:37:09.722Z,101409.63
2023-03-29T12:39:37.499Z,101399.69
2023-03-29T12:42:17.643Z,101397.50
2023-03-29T12:44:49.582Z,101400.47
2023-03-29T12:47:25.266Z,101405.38
2023-03-29T12:49:56.612Z,101404.66
2023-03-29T12:52:41.977Z,101399.47
2023-03-29T12:55:29.633Z,101391.63
2023-03-29T12:58:06.747Z,101383.69
2023-03-29T13:01:05.800Z,101362.72
2023-03-29T13:03:49.263Z,101353.09
2023-03-29T13:06:35.313Z,101351.63
2023-03-29T13:09:20.286Z,101344.06
2023-03-29T13:11:53.552Z,101346.69
2023-03-29T13:14:23.953Z,101337.88
2023-03-29T13:16:50.557Z,101336.19
2023-03-29T13:19:36.948Z,101327.59
2023-03-29T13:22:25.137Z,101325.00
2023-03-29T13:25:10.076Z,101321.59
2023-03-29T13:28:04.744Z,101320.66
2023-03-29T13:30:45.932Z,101305.09
2023-03-29T13:33:38.202Z,101306.69
2023-03-29T13:36:18.016Z,101312.22
2023-03-29T13:38:48.721Z,101306.22
2023-03-29T13:41:37.825Z,101320.94
2023-03-29T13:44:05.271Z,101322.16
2023-03-29T13:46:42.534Z,101313.59
2023-03-29T13:49:15.506Z,101307.97
2023-03-29T13:51:58.897Z,101309.75
2023-03-29T13:54:33.030Z,101310.22
2023-03-29T13:57:11.110Z,101301.84
2023-03-29T13:59:49.678Z,101289.16
2023-03-29T14:02:53.657Z,101282.50
2023-03-29T14:05:28.723Z,101283.38
2023-03-29T14:07:55.553Z,101268.38
2023-03-29T14:10:31.995Z,101269.44
2023-03-29T14:13:04.251Z,101267.03
2023-03-29T14:15:51.590Z,101262.84
2023-03-29T14:18:22.612Z,101261.47
2023-03-29T14:20:54.884Z,101259.28
2023-03-29T14:23:27.289Z,101258.00
2023-03-29T14:25:53.808Z,101257.81
2023-03-29T14:28:28.829Z,101258.00
2023-03-29T14:30:56.583Z,101254.88
2023-03-29T14:33:33.438Z,101245.19
2023-03-29T14:36:05.026Z,101242.28
2023-03-29T14:38:32.388Z,101237.44
2023-03-29T14:41:00.428Z,101238.19
2023-03-29T14:43:30.350Z,101224.63
2023-03-29T14:45:58.388Z,101233.84
2023-03-29T14:48:25.768Z,101222.56
2023-03-29T14:50:52.783Z,101218.47
2023-03-29T14:53:22.675Z,101210.63
2023-03-29T14:55:52.977Z,101209.59
2023-03-29T14:58:19.962Z,101201.91
2023-03-29T15:00:50.227Z,101208.53
2023-03-29T15:03:17.061Z,101205.78
2023-03-29T15:05:50.006Z,101198.22
2023-03-29T15:08:32.327Z,101195.59
2023-03-29T15:10:59.471Z,101186.50
2023-03-29T15:13:27.506Z,101178.19
2023-03-29T15:15:58.960Z,101176.28
2023-03-29T15:18:40.944Z,101176.28
2023-03-29T15:21:09.267Z,101176.50
2023-03-29T15:23:41.179Z,101170.00
2023-03-29T15:26:07.678Z,101161.81
2023-03-29T15:28:35.768Z,101164.34
2023-03-29T15:31:14.248Z,101153.56
2023-03-29T15:33:42.296Z,101156.84
2023-03-29T15:36:12.075Z,101159.50
2023-03-29T15:38:44.443Z,101148.44
2023-03-29T15:41:13.517Z,101147.09
2023-03-29T15:43:41.227Z,101145.75
2023-03-29T15:46:08.239Z,101145.97
2023-03-29T15:48:35.207Z,101143.78
2023-03-29T15:51:05.501Z,101138.00
2023-03-29T15:53:33.264Z,101140.63
2023-03-29T15:56:01.930Z,101128.22
2023-03-29T15:58:31.597Z,101126.41
2023-03-29T16:01:11.274Z,101116.47
2023-03-29T16:03:41.833Z,101111.19
2023-03-29T16:06:12.269Z,101104.66
2023-03-29T16:08:38.988Z,101106.00
2023-03-29T16:11:06.763Z,101099.28
2023-03-29T16:13:33.412Z,101092.44
2023-03-29T16:15:59.985Z,101089.94
2023-03-29T16:18:27.162Z,101077.41
2023-03-29T16:20:54.272Z,101073.94
2023-03-29T16:23:20.797Z,101070.78
2023-03-29T16:25:47.385Z,101060.50
2023-03-29T16:28:13.971Z,101057.16
2023-03-29T16:30:43.589Z,101053.44
2023-03-29T16:33:10.704Z,101059.44
2023-03-29T16:35:39.999Z,101048.06
2023-03-29T16:38:08.065Z,101042.06
2023-03-29T16:40:35.103Z,101036.09
2023-03-29T16:43:01.758Z,101024.97
2023-03-29T16:45:28.304Z,101021.00
2023-03-29T16:47:55.869Z,101017.84
2023-03-29T16:50:23.793Z,101013.88
2023-03-29T16:52:52.413Z,101022.81
2023-03-29T16:55:19.293Z,101034.63
2023-03-29T16:57:47.148Z,101031.56
2023-03-29T17:00:15.952Z,101025.47
2023-03-29T17:02:43.745Z,101026.41
2023-03-29T17:05:12.048Z,101015.16
2023-03-29T17:07:39.345Z,101024.84
2023-03-29T17:10:08.250Z,101025.06
2023-03-29T17:12:35.731Z,101017.50
2023-03-29T17:15:03.346Z,101024.44
2023-03-29T17:17:29.862Z,101019.31
2023-03-29T17:19:57.108Z,101014.13
2023-03-29T17:22:24.824Z,101010.69
2023-03-29T17:24:51.420Z,101000.16
2023-03-29T17:27:18.778Z,100999.44
2023-03-29T17:29:45.428Z,101003.00
2023-03-29T17:32:13.167Z,100997.97
2023-03-29T17:34:39.734Z,101000.81
2023-03-29T17:37:06.330Z,100992.22
2023-03-29T17:39:37.498Z,100983.59
2023-03-29T17:42:05.667Z,100980.22
2023-03-29T17:44:33.379Z,100976.06
2023-03-29T17:47:00.882Z,100976.97
2023-03-29T17:49:27.864Z,100966.81
2023-03-29T17:51:54.615Z,100969.88
2023-03-29T18:03:36.082Z,100962.97
2023-03-29T18:21:12.766Z,100952.16
2023-03-29T18:23:42.175Z,100951.66
2023-03-29T18:26:09.326Z,100951.94
2023-03-29T18:28:37.477Z,100947.97
2023-03-29T18:31:05.536Z,100953.44
2023-03-29T18:33:35.184Z,100947.63
2023-03-29T18:36:09.159Z,100944.31
2023-03-29T18:38:40.517Z,100939.34
2023-03-29T18:41:08.508Z,100930.19
2023-03-29T18:43:35.412Z,100941.72
2023-03-29T18:46:02.475Z,100939.28
2023-03-29T18:48:30.289Z,100940.25
2023-03-29T18:50:57.830Z,100930.69
2023-03-29T18:53:24.741Z,100941.28
2023-03-29T18:55:51.202Z,100941.00
2023-03-29T18:58:18.098Z,100928.72
2023-03-29T19:00:44.833Z,100936.66
2023-03-29T19:03:11.635Z,100931.84
2023-03-29T19:05:39.421Z,100940.84
2023-03-29T19:08:07.089Z,100935.72
2023-03-29T19:10:38.816Z,100929.00
2023-03-29T19:13:06.055Z,100936.03
2023-03-29T19:15:34.602Z,100928.38
2023-03-29T19:18:01.483Z,100929.50
2023-03-29T19:20:29.289Z,100927.94
2023-03-29T19:22:56.310Z,100922.78
2023-03-29T19:25:22.930Z,100921.94
2023-03-29T19:27:50.233Z,100918.56
2023-03-29T19:30:18.104Z,100915.22
2023-03-29T19:32:44.585Z,100915.09
2023-03-29T19:35:12.822Z,100914.19
2023-03-29T19:37:39.684Z,100904.63
2023-03-29T19:40:08.162Z,100896.03
2023-03-29T19:42:37.466Z,100884.59
2023-03-29T19:45:09.656Z,100887.22
2023-03-29T19:47:37.180Z,100873.38
2023-03-29T19:50:04.935Z,100864.69
2023-03-29T19:52:31.495Z,100855.97
2023-03-29T19:55:00.777Z,100860.28
2023-03-29T19:57:28.229Z,100850.75
2023-03-29T19:59:54.767Z,100850.84
2023-03-29T20:02:21.248Z,100852.84
2023-03-29T20:04:47.852Z,100839.19
2023-03-29T20:07:14.365Z,100834.16
2023-03-29T20:09:44.644Z,100835.81
2023-03-29T20:12:12.024Z,100829.88
2023-03-29T20:14:40.132Z,100817.81
2023-03-29T20:17:07.310Z,100831.94
2023-03-29T20:19:36.768Z,100814.34
2023-03-29T20:22:04.469Z,100808.06
2023-03-29T20:24:32.530Z,100811.53
2023-03-29T20:26:59.117Z,100811.41
2023-03-29T20:29:25.668Z,100806.28
2023-03-29T20:31:52.255Z,100800.09
2023-03-29T20:34:19.077Z,100793.06
2023-03-29T20:36:46.972Z,100789.41
2023-03-29T20:39:17.787Z,100777.88
2023-03-29T20:41:47.713Z,100769.72
2023-03-29T20:44:16.910Z,100761.63
2023-03-29T20:46:54.595Z,100754.53
2023-03-29T20:49:26.465Z,100752.41
2023-03-29T20:51:58.385Z,100750.41
2023-03-29T20:54:25.948Z,100749.16
2023-03-29T20:56:54.436Z,100737.53
2023-03-29T20:59:22.829Z,100737.31
2023-03-29T21:01:50.239Z,100723.16
2023-03-29T21:04:16.968Z,100724.72
2023-03-29T21:06:45.742Z,100720.19
2023-03-29T21:09:13.223Z,100725.44
2023-03-29T21:11:40.880Z,100711.72
2023-03-29T21:14:09.252Z,100712.88
2023-03-29T21:25:40.603Z,100706.06
2023-03-29T21:28:07.161Z,100711.31
2023-03-29T21:30:33.588Z,100701.78
2023-03-29T21:33:01.000Z,100698.41
2023-03-29T21:35:28.213Z,100691.50
2023-03-29T21:37:54.886Z,100685.44
2023-03-29T21:40:21.503Z,100679.34
2023-03-29T21:42:47.980Z,100677.66
2023-03-29T21:45:15.490Z,100683.84
2023-03-29T21:47:42.031Z,100674.31
2023-03-29T21:50:09.407Z,100683.34
2023-03-29T21:52:37.778Z,100668.75
2023-03-29T21:55:05.857Z,100666.34
2023-03-29T21:57:32.348Z,100659.44
2023-03-29T21:59:58.931Z,100657.78
2023-03-29T22:02:25.638Z,100654.31
2023-03-29T22:04:52.127Z,100652.75
2023-03-29T22:07:18.553Z,100649.38
2023-03-29T22:09:46.505Z,100650.22
2023-03-29T22:12:12.982Z,100648.47
2023-03-29T22:14:39.528Z,100648.53
2023-03-29T22:17:06.912Z,100636.28
2023-03-29T22:19:41.740Z,100642.25
2023-03-29T22:22:13.499Z,100648.34
2023-03-29T22:24:41.349Z,100643.94
2023-03-29T22:27:08.362Z,100651.91
2023-03-29T22:29:34.934Z,100638.28
2023-03-29T22:32:01.798Z,100639.56
2023-03-29T22:34:28.411Z,100640.59
2023-03-29T22:36:54.910Z,100647.63
2023-03-29T22:39:21.779Z,100636.28
2023-03-29T22:41:48.341Z,100641.44
2023-03-29T22:44:14.782Z,100636.19
2023-03-29T22:46:42.415Z,100644.81
2023-03-29T22:49:09.685Z,100639.31
2023-03-29T22:51:36.508Z,100631.59
2023-03-29T22:54:03.484Z,100632.41
2023-03-29T22:56:29.954Z,100622.47
2023-03-29T22:58:56.486Z,100616.28
2023-03-29T23:01:22.914Z,100615.09
2023-03-29T23:03:49.495Z,100617.50
2023-03-29T23:06:16.143Z,100612.38
2023-03-29T23:08:42.690Z,100618.56
2023-03-29T23:11:09.126Z,100611.66
2023-03-29T23:13:35.712Z,100613.44
2023-03-29T23:16:03.630Z,100594.06
2023-03-29T23:18:31.867Z,100593.84
2023-03-29T23:20:58.976Z,100591.84
2023-03-29T23:23:26.823Z,100588.13
2023-03-29T23:25:55.465Z,100595.69
2023-03-29T23:28:25.912Z,100597.00
2023-03-29T23:31:09.794Z,100590.84
2023-03-29T23:33:42.535Z,100592.50
2023-03-29T23:36:15.112Z,100585.47
2023-03-29T23:38:42.274Z,100584.66
2023-03-29T23:41:10.805Z,100586.22
2023-03-29T23:43:40.517Z,100573.81
2023-03-29T23:46:11.013Z,100558.09
2023-03-29T23:48:38.574Z,100565.75
2023-03-29T23:51:07.757Z,100567.31
2023-03-29T23:53:34.250Z,100564.34
2023-03-29T23:56:03.121Z,100566.88
2023-03-29T23:58:32.293Z,100572.00
